Time;durP1;ratioP1;P1;durP2;ratioP2;P2;SDS_P1;SDS_P2;PMS_P1;PMS_P2;Temp;Humidity;BMP_temperature;BMP_pressure;BME280_temperature;BME280_humidity;BME280_pressure;Samples;Min_cycle;Max_cycle;Signal;HPM_P1;HPM_P2
2021/04/19 00:01:32;;;;;;;6.38;2.83;;;5.70;74.20;;;;;;4918317;29;20031;-89
2021/04/19 00:03:58;;;;;;;6.38;3.38;;;5.80;74.40;;;;;;4919867;29;20028;-90
2021/04/19 00:06:24;;;;;;;6.63;3.00;;;5.70;74.40;;;;;;4923794;29;20094;-90
2021/04/19 00:08:50;;;;;;;5.82;3.10;;;5.70;74.50;;;;;;4939711;29;20032;-90
2021/04/19 00:11:15;;;;;;;6.15;3.28;;;5.60;74.50;;;;;;4923292;29;20556;-89
2021/04/19 00:13:42;;;;;;;6.57;3.00;;;5.50;74.70;;;;;;4923207;29;20052;-90
2021/04/19 00:16:08;;;;;;;7.40;3.67;;;5.50;74.90;;;;;;4923467;29;20126;-90
2021/04/19 00:18:34;;;;;;;6.80;2.92;;;5.40;75.00;;;;;;4940291;29;20059;-89
2021/04/19 00:20:59;;;;;;;6.53;2.92;;;5.30;75.10;;;;;;4922329;29;20027;-89
2021/04/19 00:23:25;;;;;;;5.38;3.05;;;5.20;75.30;;;;;;4939361;29;20039;-89
2021/04/19 00:25:51;;;;;;;8.70;3.03;;;5.20;75.40;;;;;;4923387;29;20052;-89
2021/04/19 00:28:17;;;;;;;8.32;3.03;;;5.10;75.50;;;;;;4923496;29;20118;-90
2021/04/19 00:30:42;;;;;;;12.38;3.25;;;5.10;75.70;;;;;;4923609;29;20024;-90
2021/04/19 00:33:08;;;;;;;5.40;3.33;;;5.00;75.90;;;;;;4922547;29;20028;-89
2021/04/19 00:35:34;;;;;;;5.45;3.15;;;5.00;76.00;;;;;;4939701;29;20035;-91
2021/04/19 00:37:59;;;;;;;6.88;3.08;;;4.90;76.20;;;;;;4922618;29;20026;-91
2021/04/19 00:40:25;;;;;;;5.65;2.80;;;4.80;76.40;;;;;;4922694;29;20482;-90
2021/04/19 00:42:56;;;;;;;6.95;3.42;;;4.80;76.60;;;;;;4923111;29;20024;-90
2021/04/19 00:45:21;;;;;;;6.07;3.25;;;4.80;76.80;;;;;;4922045;29;20075;-89
2021/04/19 00:47:47;;;;;;;7.50;2.95;;;4.80;76.90;;;;;;4939945;29;20537;-88
2021/04/19 00:50:33;;;;;;;8.07;3.33;;;4.70;76.90;;;;;;4922827;29;20059;-90
2021/04/19 00:53:04;;;;;;;7.30;3.38;;;4.70;77.10;;;;;;4922314;29;20152;-89
2021/04/19 00:55:30;;;;;;;9.63;4.07;;;4.60;77.30;;;;;;4922021;29;20508;-91
2021/04/19 00:57:55;;;;;;;7.85;3.85;;;4.60;77.40;;;;;;4922103;29;20028;-89
2021/04/19 01:00:29;;;;;;;6.07;3.10;;;4.50;77.50;;;;;;4939263;29;20031;-89
2021/04/19 01:02:55;;;;;;;7.60;3.53;;;4.50;77.70;;;;;;4939166;29;20034;-90
2021/04/19 01:05:25;;;;;;;6.28;3.28;;;4.40;77.90;;;;;;4920032;29;20143;-89
2021/04/19 01:07:51;;;;;;;6.77;3.37;;;4.40;78.20;;;;;;4937011;29;20516;-90
2021/04/19 01:10:17;;;;;;;7.38;3.63;;;4.30;78.40;;;;;;4922531;29;20020;-91
2021/04/19 01:12:43;;;;;;;9.20;3.40;;;4.20;78.50;;;;;;4939201;29;20066;-90
2021/04/19 01:15:09;;;;;;;7.43;3.40;;;4.20;78.80;;;;;;4921657;29;20086;-90
2021/04/19 01:17:35;;;;;;;7.25;4.38;;;4.20;79.00;;;;;;4920509;29;20081;-91
2021/04/19 01:20:04;;;;;;;7.90;3.00;;;4.10;79.30;;;;;;4920573;29;20028;-90
2021/04/19 01:22:30;;;;;;;8.07;3.53;;;4.10;79.50;;;;;;4919297;29;20032;-90
2021/04/19 01:24:55;;;;;;;8.95;4.63;;;4.10;79.70;;;;;;4919920;29;20036;-90
2021/04/19 01:27:21;;;;;;;6.28;3.22;;;4.00;79.80;;;;;;4937796;29;20057;-90
2021/04/19 01:29:46;;;;;;;4.95;3.22;;;4.00;80.00;;;;;;4921765;29;20028;-91
2021/04/19 01:32:12;;;;;;;7.13;3.40;;;3.90;80.30;;;;;;4921625;29;20034;-90
2021/04/19 01:34:38;;;;;;;6.82;3.33;;;3.90;81.50;;;;;;4922003;29;20027;-89
2021/04/19 01:37:03;;;;;;;8.63;3.80;;;3.90;80.80;;;;;;4922087;29;20035;-90
2021/04/19 01:39:29;;;;;;;8.02;4.25;;;3.80;80.90;;;;;;4919736;29;20549;-90
2021/04/19 01:41:54;;;;;;;8.95;3.70;;;3.80;81.10;;;;;;4920895;29;20032;-90
2021/04/19 01:44:20;;;;;;;8.00;3.85;;;3.80;82.10;;;;;;4921317;29;20066;-90
2021/04/19 01:46:47;;;;;;;10.27;3.90;;;3.70;81.60;;;;;;4920459;29;20091;-90
2021/04/19 01:49:17;;;;;;;9.65;4.30;;;3.70;82.60;;;;;;4920057;29;20055;-89
2021/04/19 01:51:45;;;;;;;10.32;3.63;;;3.70;82.10;;;;;;4928931;29;20031;-89
2021/04/19 01:54:11;;;;;;;9.52;4.07;;;3.60;82.20;;;;;;4942766;29;20036;-90
2021/04/19 01:56:37;;;;;;;6.88;3.53;;;3.50;82.50;;;;;;4927165;29;20034;-89
2021/04/19 01:59:04;;;;;;;7.18;3.65;;;3.50;82.90;;;;;;4926452;29;20110;-90
2021/04/19 02:01:31;;;;;;;7.10;3.97;;;3.50;83.20;;;;;;4924883;29;20032;-90
2021/04/19 02:04:11;;;;;;;6.28;3.63;;;3.40;83.50;;;;;;4922495;29;20020;-90
2021/04/19 02:06:43;;;;;;;8.20;3.77;;;3.30;83.70;;;;;;4939552;29;20120;-90
2021/04/19 02:09:28;;;;;;;6.03;3.58;;;3.30;84.20;;;;;;4921659;29;20027;-90
2021/04/19 02:12:15;;;;;;;5.18;3.65;;;3.30;84.30;;;;;;4936737;29;20122;-89
2021/04/19 02:14:55;;;;;;;10.20;3.60;;;3.30;84.50;;;;;;4938468;29;20413;-89
2021/04/19 02:17:35;;;;;;;8.27;4.07;;;3.20;84.70;;;;;;4938895;29;20525;-89
2021/04/19 02:20:23;;;;;;;5.13;3.10;;;3.20;85.70;;;;;;4920800;29;20028;-89
2021/04/19 02:23:24;;;;;;;8.10;4.03;;;3.10;85.30;;;;;;4920273;29;20040;-90
2021/04/19 02:25:53;;;;;;;6.70;3.67;;;3.10;85.60;;;;;;4920386;29;20035;-89
2021/04/19 02:28:29;;;;;;;11.50;3.90;;;3.00;85.80;;;;;;4936208;29;20032;-90
2021/04/19 02:30:59;;;;;;;16.83;3.47;;;3.00;86.00;;;;;;4919593;29;20083;-89
2021/04/19 02:33:29;;;;;;;6.75;3.58;;;3.00;86.30;;;;;;4920709;29;20032;-89
2021/04/19 02:35:56;;;;;;;6.85;3.88;;;2.90;86.60;;;;;;4942317;29;20031;-90
2021/04/19 02:38:29;;;;;;;7.00;3.28;;;2.90;86.90;;;;;;4923767;29;20090;-90
2021/04/19 02:40:58;;;;;;;7.25;4.57;;;2.90;87.20;;;;;;4939057;29;20363;-89
2021/04/19 02:43:25;;;;;;;8.10;4.47;;;2.80;87.50;;;;;;4922639;29;20039;-89
2021/04/19 02:45:52;;;;;;;8.27;3.90;;;2.80;87.90;;;;;;4939821;29;20028;-89
2021/04/19 02:48:23;;;;;;;8.50;4.05;;;2.80;88.00;;;;;;4923898;29;20051;-89
2021/04/19 02:50:49;;;;;;;10.93;4.22;;;2.70;88.20;;;;;;4940363;29;20111;-90
2021/04/19 02:53:15;;;;;;;8.43;3.70;;;2.70;88.50;;;;;;4922352;29;20476;-90
2021/04/19 02:55:41;;;;;;;7.22;4.20;;;2.70;88.80;;;;;;4923859;29;20055;-90
2021/04/19 02:58:09;;;;;;;9.05;3.92;;;2.60;89.00;;;;;;4939577;29;20042;-90
2021/04/19 03:00:40;;;;;;;10.73;4.00;;;2.60;89.50;;;;;;4939561;29;20103;-90
2021/04/19 03:03:19;;;;;;;6.82;4.15;;;2.60;89.80;;;;;;4922432;29;20034;-91
2021/04/19 03:05:46;;;;;;;9.27;4.28;;;2.60;89.90;;;;;;4939203;29;20114;-90
2021/04/19 03:08:17;;;;;;;7.80;3.75;;;2.60;90.00;;;;;;4922334;29;20036;-90
2021/04/19 03:10:44;;;;;;;;;;;2.50;90.10;;;;;;4922920;29;20545;-90
2021/04/19 03:13:12;;;;;;;7.60;3.97;;;2.50;90.20;;;;;;4939664;29;19919;-90
2021/04/19 03:15:42;;;;;;;10.10;4.05;;;2.50;90.20;;;;;;4939959;29;20063;-90
2021/04/19 03:18:12;;;;;;;6.75;3.97;;;2.50;90.40;;;;;;4924126;29;20028;-89
2021/04/19 03:21:05;;;;;;;9.30;3.85;;;2.50;90.40;;;;;;4923439;29;20035;-91
2021/04/19 03:23:59;;;;;;;7.53;3.90;;;2.50;90.50;;;;;;4922761;29;20489;-89
2021/04/19 03:26:29;;;;;;;10.00;3.95;;;2.50;90.50;;;;;;4922669;29;20051;-89
2021/04/19 03:28:56;;;;;;;7.90;3.95;;;2.40;90.60;;;;;;4923143;29;20033;-89
2021/04/19 03:31:35;;;;;;;7.85;4.55;;;2.40;90.70;;;;;;4939222;29;20581;-90
2021/04/19 03:34:06;;;;;;;7.32;4.50;;;2.40;90.80;;;;;;4921353;29;20032;-89
2021/04/19 03:36:33;;;;;;;8.88;4.90;;;2.40;90.90;;;;;;4922880;29;20035;-88
2021/04/19 03:39:01;;;;;;;6.95;4.22;;;2.30;90.90;;;;;;4923146;29;20095;-89
2021/04/19 03:41:30;;;;;;;13.05;4.20;;;2.20;91.00;;;;;;4923280;29;20039;-88
2021/04/19 03:44:01;;;;;;;10.18;4.13;;;2.20;91.10;;;;;;4939319;29;20035;-89
2021/04/19 03:46:30;;;;;;;9.48;4.05;;;2.10;91.30;;;;;;4921372;29;20039;-89
2021/04/19 03:49:04;;;;;;;10.00;4.00;;;2.20;91.40;;;;;;4922241;29;20043;-89
2021/04/19 03:51:32;;;;;;;9.73;5.57;;;2.10;91.50;;;;;;4918589;29;20028;-89
2021/04/19 03:53:58;;;;;;;9.00;4.55;;;2.10;91.60;;;;;;4902602;29;20481;-89
2021/04/19 03:56:26;;;;;;;9.07;4.18;;;2.10;91.60;;;;;;4901705;29;20028;-89
2021/04/19 03:58:52;;;;;;;9.50;3.88;;;2.00;91.70;;;;;;4901745;29;20028;-89
2021/04/19 04:01:19;;;;;;;11.90;4.55;;;2.00;91.80;;;;;;4902159;29;20123;-89
2021/04/19 04:03:46;;;;;;;9.98;4.20;;;1.90;91.90;;;;;;4902294;29;20482;-89
2021/04/19 04:06:13;;;;;;;9.95;4.30;;;1.90;92.00;;;;;;4901880;29;20501;-88
2021/04/19 04:08:40;;;;;;;7.85;4.18;;;1.90;92.20;;;;;;4918417;29;20044;-88
2021/04/19 04:11:07;;;;;;;10.25;4.20;;;1.90;92.30;;;;;;4901881;29;20114;-88
2021/04/19 04:13:34;;;;;;;7.78;3.90;;;1.80;92.40;;;;;;4901557;29;20063;-88
2021/04/19 04:16:00;;;;;;;7.22;3.97;;;1.80;92.50;;;;;;4918477;29;20032;-89
2021/04/19 04:18:26;;;;;;;10.38;4.40;;;1.80;92.60;;;;;;4917513;29;20043;-88
2021/04/19 04:20:52;;;;;;;6.38;3.38;;;1.80;92.70;;;;;;4917106;29;20162;-88
2021/04/19 04:23:19;;;;;;;7.43;3.83;;;1.80;92.70;;;;;;4918255;29;20032;-88
2021/04/19 04:25:45;;;;;;;7.35;3.97;;;1.80;92.80;;;;;;4917069;29;20028;-88
2021/04/19 04:28:12;;;;;;;9.68;4.30;;;1.70;92.80;;;;;;4916965;29;20159;-89
2021/04/19 04:30:38;;;;;;;9.10;4.20;;;1.70;92.90;;;;;;4916777;29;20095;-89
2021/04/19 04:33:05;;;;;;;8.27;3.80;;;1.70;93.00;;;;;;4917119;29;20039;-87
2021/04/19 04:35:32;;;;;;;7.63;3.92;;;1.70;93.10;;;;;;4917106;29;20040;-87
2021/04/19 04:37:58;;;;;;;9.73;4.43;;;1.70;93.10;;;;;;4916953;29;20036;-89
2021/04/19 04:40:32;;;;;;;11.10;4.35;;;1.70;93.20;;;;;;4916396;29;20032;-88
2021/04/19 04:43:04;;;;;;;8.60;4.05;;;1.60;93.20;;;;;;4918070;29;20028;-88
2021/04/19 04:45:31;;;;;;;11.63;4.13;;;1.60;93.40;;;;;;4908244;29;20127;-88
2021/04/19 04:48:09;;;;;;;12.65;4.30;;;1.60;93.50;;;;;;4909821;29;20048;-88
2021/04/19 04:50:49;;;;;;;9.00;4.28;;;1.60;93.50;;;;;;4907685;29;20498;-89
2021/04/19 04:53:42;;;;;;;10.23;4.53;;;1.60;93.50;;;;;;4924326;29;20062;-88
2021/04/19 04:56:11;;;;;;;13.10;4.47;;;1.50;93.60;;;;;;4901559;29;20516;-88
2021/04/19 04:58:38;;;;;;;10.35;4.50;;;1.50;93.70;;;;;;4901710;29;20028;-87
2021/04/19 05:01:07;;;;;;;13.40;4.50;;;1.40;93.80;;;;;;4917480;29;20051;-88
2021/04/19 05:03:34;;;;;;;10.38;5.15;;;1.40;93.90;;;;;;4917219;29;20043;-87
2021/04/19 05:06:01;;;;;;;8.50;4.63;;;1.40;94.10;;;;;;4901524;29;20176;-87
2021/04/19 05:08:27;;;;;;;9.02;4.95;;;1.40;94.20;;;;;;4917906;29;20127;-88
2021/04/19 05:10:56;;;;;;;7.38;3.97;;;1.40;94.20;;;;;;4917205;29;20127;-87
2021/04/19 05:13:22;;;;;;;8.27;4.13;;;1.40;94.30;;;;;;4900514;29;20361;-88
2021/04/19 05:15:49;;;;;;;10.15;4.57;;;1.40;94.40;;;;;;4900179;29;20118;-87
2021/04/19 05:18:19;;;;;;;10.88;4.38;;;1.40;94.50;;;;;;4900421;29;20526;-88
2021/04/19 05:20:46;;;;;;;19.13;4.53;;;1.40;94.90;;;;;;4900398;29;20055;-87
2021/04/19 05:23:13;;;;;;;8.82;4.25;;;1.40;94.60;;;;;;4900630;29;20020;-87
2021/04/19 05:25:40;;;;;;;10.52;4.25;;;1.30;94.60;;;;;;4899885;29;20123;-88
2021/04/19 05:28:06;;;;;;;10.57;4.65;;;1.40;94.70;;;;;;4900176;29;20512;-87
2021/04/19 05:30:32;;;;;;;10.63;4.32;;;1.30;94.80;;;;;;4900210;29;20043;-87
2021/04/19 05:32:58;;;;;;;13.05;4.53;;;1.30;94.80;;;;;;4917508;29;20035;-87
2021/04/19 05:35:25;;;;;;;7.95;4.00;;;1.30;94.90;;;;;;4900159;29;20058;-87
2021/04/19 05:37:52;;;;;;;10.77;4.60;;;1.30;95.00;;;;;;4900406;29;20517;-88
2021/04/19 05:40:19;;;;;;;9.43;4.63;;;1.30;95.10;;;;;;4900142;29;20039;-87
2021/04/19 05:42:46;;;;;;;8.80;4.70;;;1.30;95.20;;;;;;4900809;29;20031;-89
2021/04/19 05:45:16;;;;;;;10.13;4.75;;;1.30;95.20;;;;;;4900896;29;20051;-89
2021/04/19 05:47:47;;;;;;;12.63;4.82;;;1.20;95.20;;;;;;4917953;29;20040;-89
2021/04/19 05:50:20;;;;;;;9.13;4.30;;;1.20;95.30;;;;;;4927875;29;20039;-89
2021/04/19 05:52:48;;;;;;;13.20;5.20;;;1.20;95.40;;;;;;4911386;29;20156;-88
2021/04/19 05:55:19;;;;;;;10.82;4.47;;;1.20;95.50;;;;;;4908281;29;20517;-88
2021/04/19 05:58:05;;;;;;;8.63;4.28;;;1.20;95.60;;;;;;4906294;29;20032;-87
2021/04/19 06:00:39;;;;;;;10.00;4.95;;;1.20;95.70;;;;;;4907823;29;20147;-88
2021/04/19 06:03:12;;;;;;;17.20;5.43;;;1.20;95.70;;;;;;4908623;29;20526;-87
2021/04/19 06:05:50;;;;;;;11.10;5.63;;;1.20;95.80;;;;;;4915337;29;20032;-88
2021/04/19 06:08:18;;;;;;;11.43;5.25;;;1.20;95.90;;;;;;4916777;29;20036;-89
2021/04/19 06:10:48;;;;;;;9.85;4.40;;;1.20;96.30;;;;;;4917077;29;20072;-88
2021/04/19 06:13:18;;;;;;;10.23;4.72;;;1.20;96.10;;;;;;4921988;29;20063;-87
2021/04/19 06:15:47;;;;;;;12.82;4.90;;;1.20;96.20;;;;;;4920727;29;20054;-89
2021/04/19 06:18:17;;;;;;;8.70;4.72;;;1.30;96.30;;;;;;4932061;29;20028;-88
2021/04/19 06:20:44;;;;;;;9.00;4.75;;;1.30;96.40;;;;;;4924579;29;20382;-88
2021/04/19 06:23:10;;;;;;;8.25;3.97;;;1.30;96.40;;;;;;4920123;29;20021;-88
2021/04/19 06:25:36;;;;;;;12.07;5.28;;;1.30;96.50;;;;;;4921127;29;20031;-88
2021/04/19 06:28:06;;;;;;;13.93;5.65;;;1.40;96.50;;;;;;4922283;29;20494;-89
2021/04/19 06:30:41;;;;;;;13.32;5.90;;;1.40;96.60;;;;;;4932038;29;20111;-89
2021/04/19 06:33:15;;;;;;;11.70;5.43;;;1.40;96.70;;;;;;4946139;29;20039;-88
2021/04/19 06:35:41;;;;;;;12.23;5.88;;;1.40;96.80;;;;;;4928909;29;20474;-89
2021/04/19 06:38:07;;;;;;;10.63;4.85;;;1.50;97.10;;;;;;4932255;29;20110;-89
2021/04/19 06:40:42;;;;;;;13.70;5.50;;;1.50;96.80;;;;;;4919659;29;20080;-89
2021/04/19 06:43:09;;;;;;;12.63;6.10;;;1.60;96.90;;;;;;4913428;29;20024;-89
2021/04/19 06:45:37;;;;;;;13.65;5.65;;;1.60;96.90;;;;;;4925310;29;20489;-89
2021/04/19 06:48:05;;;;;;;13.10;6.20;;;1.70;97.00;;;;;;4920334;29;20070;-89
2021/04/19 06:50:31;;;;;;;17.52;6.55;;;1.70;97.00;;;;;;4919467;29;20474;-89
2021/04/19 06:52:58;;;;;;;9.70;5.35;;;1.80;97.00;;;;;;4921943;29;20055;-90
2021/04/19 06:55:24;;;;;;;12.75;5.43;;;1.80;97.10;;;;;;4931384;29;20071;-89
2021/04/19 06:57:58;;;;;;;13.10;6.07;;;1.80;97.20;;;;;;4919052;29;20043;-88
2021/04/19 07:00:27;;;;;;;13.60;5.68;;;1.90;97.20;;;;;;4913260;29;20035;-89
2021/04/19 07:02:55;;;;;;;10.35;5.15;;;2.00;97.20;;;;;;4918219;29;20029;-89
2021/04/19 07:05:31;;;;;;;13.75;5.38;;;2.00;97.30;;;;;;4931877;29;20028;-88
2021/04/19 07:08:14;;;;;;;13.18;5.82;;;2.10;97.40;;;;;;4913148;29;20043;-90
2021/04/19 07:10:42;;;;;;;10.38;5.68;;;2.20;97.40;;;;;;4942138;29;20120;-90
2021/04/19 07:13:13;;;;;;;17.58;6.47;;;2.30;97.40;;;;;;4913994;29;20052;-91
2021/04/19 07:15:46;;;;;;;15.45;5.20;;;2.40;97.40;;;;;;4919409;29;20027;-89
2021/04/19 07:18:14;;;;;;;11.80;5.15;;;2.50;97.40;;;;;;4931396;29;20042;-90
2021/04/19 07:20:40;;;;;;;9.85;5.13;;;2.60;97.40;;;;;;4915045;29;20167;-90
2021/04/19 07:23:05;;;;;;;13.85;5.55;;;2.70;97.40;;;;;;4925118;29;20596;-91
2021/04/19 07:25:32;;;;;;;10.88;5.95;;;2.80;97.40;;;;;;4921317;29;20045;-90
2021/04/19 07:28:04;;;;;;;10.80;5.28;;;2.90;97.30;;;;;;4923473;29;20074;-91
2021/04/19 07:30:30;;;;;;;9.93;5.95;;;3.00;97.30;;;;;;4922788;29;20024;-89
2021/04/19 07:32:56;;;;;;;9.82;5.05;;;3.00;97.10;;;;;;4919748;29;20031;-89
2021/04/19 07:35:27;;;;;;;9.65;3.95;;;3.20;97.10;;;;;;4925988;29;20035;-90
2021/04/19 07:37:58;;;;;;;8.73;4.25;;;3.20;97.10;;;;;;4925593;29;20031;-90
2021/04/19 07:40:33;;;;;;;9.10;4.18;;;3.40;97.10;;;;;;4925383;29;20028;-90
2021/04/19 07:43:13;;;;;;;10.63;4.38;;;3.60;97.10;;;;;;4933232;29;20059;-90
2021/04/19 07:45:40;;;;;;;11.30;4.90;;;3.80;96.80;;;;;;4948307;29;20032;-90
2021/04/19 07:48:26;;;;;;;9.52;4.90;;;3.90;96.60;;;;;;4944442;29;20035;-90
2021/04/19 07:50:51;;;;;;;11.45;4.75;;;4.10;96.40;;;;;;4926674;29;20500;-91
2021/04/19 07:53:17;;;;;;;8.60;4.40;;;4.30;96.20;;;;;;4906063;29;20028;-91
2021/04/19 07:55:43;;;;;;;9.02;4.38;;;4.40;96.00;;;;;;4924660;29;20019;-91
2021/04/19 07:58:23;;;;;;;11.52;4.57;;;4.60;95.70;;;;;;4916444;29;20070;-91
2021/04/19 08:00:51;;;;;;;11.30;4.38;;;4.70;95.40;;;;;;4925358;29;20043;-90
2021/04/19 08:03:22;;;;;;;13.27;4.43;;;4.90;95.20;;;;;;4941885;29;20032;-91
2021/04/19 08:05:51;;;;;;;8.45;4.60;;;5.00;95.00;;;;;;4916875;29;20036;-90
2021/04/19 08:08:38;;;;;;;9.05;4.80;;;5.10;94.80;;;;;;4911327;29;20040;-91
2021/04/19 08:11:08;;;;;;;8.90;4.85;;;5.30;94.60;;;;;;4905782;29;20473;-90
2021/04/19 08:13:34;;;;;;;9.30;4.78;;;5.50;94.40;;;;;;4906015;29;20123;-90
2021/04/19 08:16:19;;;;;;;9.23;4.80;;;5.60;94.20;;;;;;4906092;29;20577;-91
2021/04/19 08:18:46;;;;;;;12.52;5.55;;;5.70;94.10;;;;;;4904028;29;20036;-89
2021/04/19 08:21:12;;;;;;;10.90;5.32;;;5.90;93.90;;;;;;4905245;29;20029;-90
2021/04/19 08:23:44;;;;;;;12.48;5.38;;;6.00;93.80;;;;;;4905902;29;20139;-91
2021/04/19 08:26:10;;;;;;;13.02;6.10;;;6.10;93.60;;;;;;4907968;29;20024;-93
2021/04/19 08:28:48;;;;;;;11.02;5.95;;;6.30;93.50;;;;;;4906606;29;20040;-90
2021/04/19 08:31:16;;;;;;;8.82;4.40;;;6.40;93.20;;;;;;4905616;29;20047;-91
2021/04/19 08:33:43;;;;;;;10.07;5.40;;;6.60;92.90;;;;;;4904634;29;20043;-91
2021/04/19 08:36:14;;;;;;;9.10;4.50;;;6.70;92.60;;;;;;4912379;29;20028;-91
2021/04/19 08:38:42;;;;;;;8.18;4.28;;;6.90;92.40;;;;;;4939053;29;20061;-90
2021/04/19 08:41:09;;;;;;;8.77;5.03;;;7.10;92.10;;;;;;4916445;29;20035;-89
2021/04/19 08:43:39;;;;;;;9.95;4.80;;;7.30;91.70;;;;;;4906533;29;20154;-90
2021/04/19 08:46:05;;;;;;;13.68;4.88;;;7.50;91.30;;;;;;4905007;29;20119;-89
2021/04/19 08:48:32;;;;;;;10.98;5.07;;;7.70;91.10;;;;;;4903270;29;20214;-89
2021/04/19 08:51:03;;;;;;;13.15;5.75;;;7.90;90.70;;;;;;4904454;29;20021;-91
2021/04/19 08:53:29;;;;;;;10.25;4.53;;;8.10;90.40;;;;;;4920121;29;20035;-91
2021/04/19 08:55:55;;;;;;;23.10;4.78;;;8.30;90.00;;;;;;4904552;29;20024;-91
2021/04/19 08:58:21;;;;;;;8.38;4.72;;;8.50;89.30;;;;;;4904058;29;20028;-89
2021/04/19 09:00:49;;;;;;;9.52;3.97;;;8.70;88.50;;;;;;4918433;29;20043;-89
2021/04/19 09:03:17;;;;;;;8.85;4.63;;;8.90;87.70;;;;;;4904784;29;20075;-90
2021/04/19 09:05:43;;;;;;;7.13;3.83;;;9.10;86.60;;;;;;4906832;29;20123;-92
2021/04/19 09:08:15;;;;;;;7.32;4.15;;;9.30;85.80;;;;;;4907865;29;20060;-91
2021/04/19 09:10:59;;;;;;;9.32;3.88;;;9.60;85.00;;;;;;4904109;29;20028;-90
2021/04/19 09:13:26;;;;;;;9.35;3.92;;;9.80;84.00;;;;;;4903632;29;20553;-89
2021/04/19 09:15:53;;;;;;;10.63;3.78;;;10.00;82.70;;;;;;4905608;29;20032;-90
2021/04/19 09:18:21;;;;;;;7.22;4.20;;;10.20;81.30;;;;;;4903475;29;20488;-89
2021/04/19 09:20:48;;;;;;;8.75;3.90;;;10.50;79.90;;;;;;4904026;29;20028;-90
2021/04/19 09:23:31;;;;;;;6.63;3.60;;;10.70;78.80;;;;;;4919275;29;20023;-90
2021/04/19 09:25:59;;;;;;;6.07;3.33;;;11.00;77.30;;;;;;4918262;29;20028;-91
2021/04/19 09:28:40;;;;;;;7.28;3.65;;;11.20;77.10;;;;;;4909978;29;20036;-90
2021/04/19 09:31:11;;;;;;;7.28;3.83;;;11.50;74.70;;;;;;4931334;29;20024;-90
2021/04/19 09:33:37;;;;;;;;;;;11.70;73.30;;;;;;4914979;29;20048;-91
2021/04/19 09:36:04;;;;;;;8.07;3.72;;;12.00;72.70;;;;;;4913900;29;19906;-90
2021/04/19 09:38:47;;;;;;;10.38;5.20;;;12.20;71.30;;;;;;4929027;29;20481;-92
2021/04/19 09:41:17;;;;;;;11.90;4.72;;;12.30;70.00;;;;;;4932222;29;20561;-91
2021/04/19 09:43:58;;;;;;;7.53;4.10;;;12.60;68.90;;;;;;4910909;29;20556;-90
2021/04/19 09:46:32;;;;;;;8.45;4.30;;;12.80;67.20;;;;;;4912877;29;20036;-90
2021/04/19 09:49:06;;;;;;;9.25;4.55;;;13.00;65.90;;;;;;4937921;29;20027;-90
2021/04/19 09:51:43;;;;;;;9.32;5.13;;;13.20;64.80;;;;;;4914731;29;20039;-90
2021/04/19 09:54:11;;;;;;;8.27;5.15;;;13.40;63.90;;;;;;4929248;29;20103;-90
2021/04/19 09:56:44;;;;;;;10.38;4.82;;;13.60;62.80;;;;;;4913397;29;20059;-90
2021/04/19 09:59:15;;;;;;;6.93;4.20;;;13.80;61.80;;;;;;4937499;29;20118;-90
2021/04/19 10:01:44;;;;;;;11.43;4.65;;;13.90;60.30;;;;;;4921032;29;20071;-90
2021/04/19 10:04:10;;;;;;;8.55;5.25;;;14.00;59.70;;;;;;4919726;29;20027;-90
2021/04/19 10:06:38;;;;;;;7.82;4.63;;;14.20;59.30;;;;;;4920972;29;20043;-91
2021/04/19 10:09:09;;;;;;;8.85;4.90;;;14.40;58.60;;;;;;4921458;29;20477;-92
2021/04/19 10:11:41;;;;;;;17.98;4.65;;;14.50;58.00;;;;;;4922597;29;20112;-90
2021/04/19 10:14:12;;;;;;;8.80;4.00;;;14.70;57.60;;;;;;4921461;29;20048;-91
2021/04/19 10:16:50;;;;;;;5.47;3.72;;;14.90;57.10;;;;;;4921376;29;20036;-91
2021/04/19 10:19:26;;;;;;;9.73;4.47;;;15.00;56.70;;;;;;4902449;29;20036;-92
2021/04/19 10:22:02;;;;;;;6.53;3.92;;;15.20;56.50;;;;;;4922247;29;20050;-92
2021/04/19 10:24:28;;;;;;;7.95;4.32;;;15.30;56.10;;;;;;4922363;29;20019;-92
2021/04/19 10:26:56;;;;;;;7.60;4.07;;;15.40;55.60;;;;;;4929600;29;20036;-92
2021/04/19 10:29:26;;;;;;;12.35;4.80;;;15.60;55.10;;;;;;4935327;29;20103;-94
2021/04/19 10:31:57;;;;;;;8.13;4.35;;;15.70;54.80;;;;;;4937683;29;20074;-94
2021/04/19 10:34:26;;;;;;;8.52;4.20;;;15.90;54.40;;;;;;4936625;29;20038;-93
2021/04/19 10:36:55;;;;;;;8.10;4.10;;;16.10;53.90;;;;;;4933911;29;20023;-90
2021/04/19 10:39:24;;;;;;;12.35;4.28;;;16.20;53.30;;;;;;4930393;29;20030;-94
2021/04/19 10:42:03;;;;;;;6.70;3.95;;;16.30;52.80;;;;;;4934380;29;20024;-93
2021/04/19 10:44:39;;;;;;;7.80;4.68;;;16.30;52.30;;;;;;4928939;29;20063;-92
2021/04/19 10:47:06;;;;;;;9.68;4.75;;;16.50;52.30;;;;;;4915907;29;20130;-92
2021/04/19 10:49:32;;;;;;;6.47;4.40;;;16.70;52.30;;;;;;4939878;29;20036;-91
2021/04/19 10:52:01;;;;;;;7.45;4.38;;;16.90;51.50;;;;;;4923808;29;20039;-92
2021/04/19 10:54:29;;;;;;;8.57;4.28;;;16.90;50.90;;;;;;4927283;29;20027;-92
2021/04/19 10:56:57;;;;;;;11.18;4.25;;;17.10;50.90;;;;;;4946344;29;20031;-92
2021/04/19 10:59:24;;;;;;;7.70;4.30;;;17.20;50.50;;;;;;4949565;29;20016;-91
2021/04/19 11:02:04;;;;;;;11.77;4.72;;;17.40;50.50;;;;;;4930687;29;20028;-93
2021/04/19 11:04:31;;;;;;;8.07;4.25;;;17.50;49.70;;;;;;4932213;29;20027;-92
2021/04/19 11:07:22;;;;;;;9.38;4.30;;;17.60;49.30;;;;;;4928391;29;20036;-93
2021/04/19 11:10:09;;;;;;;;;;;17.60;49.00;;;;;;4928888;29;20397;-92
2021/04/19 11:12:34;;;;;;;9.70;4.80;;;17.70;49.00;;;;;;4916465;29;19962;-92
2021/04/19 11:15:13;;;;;;;7.32;4.18;;;17.80;48.50;;;;;;4945161;29;20047;-93
2021/04/19 11:17:39;;;;;;;8.15;4.10;;;17.90;48.00;;;;;;4929551;29;20031;-93
2021/04/19 11:20:30;;;;;;;10.30;4.68;;;18.20;48.10;;;;;;4929691;29;20031;-93
2021/04/19 11:22:59;;;;;;;;;;;18.50;47.60;;;;;;4930136;29;20036;-94
2021/04/19 11:25:31;;;;;;;7.47;4.57;;;18.70;47.40;;;;;;4927644;29;19975;-92
2021/04/19 11:28:23;;;;;;;6.90;4.45;;;18.90;47.40;;;;;;4926297;29;20043;-93
2021/04/19 11:30:50;;;;;;;7.28;4.18;;;19.00;46.90;;;;;;4924353;29;20047;-93
2021/04/19 11:33:27;;;;;;;8.55;4.28;;;19.10;46.40;;;;;;4922906;29;20397;-93
2021/04/19 11:36:07;;;;;;;8.18;4.72;;;19.10;45.20;;;;;;4915105;29;20031;-92
2021/04/19 11:38:38;;;;;;;11.32;4.80;;;19.00;45.30;;;;;;4928688;29;20096;-93
2021/04/19 11:41:06;;;;;;;8.88;3.88;;;19.00;45.40;;;;;;4913657;29;20024;-93
2021/04/19 11:43:46;;;;;;;6.65;4.10;;;19.20;45.30;;;;;;4917854;29;20031;-93
2021/04/19 11:46:14;;;;;;;6.93;4.20;;;19.50;44.90;;;;;;4938746;29;20028;-93
2021/04/19 11:48:45;;;;;;;8.55;4.13;;;19.80;44.80;;;;;;4913575;29;20028;-92
2021/04/19 11:51:15;;;;;;;8.75;4.60;;;20.00;44.50;;;;;;4921231;29;20024;-92
2021/04/19 11:53:43;;;;;;;13.25;5.15;;;20.20;44.40;;;;;;4924798;29;20103;-93
2021/04/19 11:56:10;;;;;;;8.65;4.70;;;20.20;43.50;;;;;;4925933;29;20023;-92
2021/04/19 11:58:38;;;;;;;8.77;4.28;;;20.10;43.00;;;;;;4925421;29;20125;-92
2021/04/19 12:01:04;;;;;;;13.13;4.53;;;20.10;43.10;;;;;;4920444;29;20083;-92
2021/04/19 12:03:30;;;;;;;10.88;4.82;;;20.20;43.00;;;;;;4908074;29;20545;-93
2021/04/19 12:05:56;;;;;;;8.48;5.00;;;20.30;42.80;;;;;;4908904;29;20028;-93
2021/04/19 12:08:22;;;;;;;11.40;4.70;;;20.30;42.20;;;;;;4906812;29;20036;-93
2021/04/19 12:10:48;;;;;;;10.25;5.05;;;20.40;42.20;;;;;;4921309;29;20020;-92
2021/04/19 12:13:15;;;;;;;7.63;4.13;;;20.50;41.80;;;;;;4925905;29;20066;-92
2021/04/19 12:15:45;;;;;;;8.07;3.80;;;20.70;41.80;;;;;;4926545;29;20027;-92
2021/04/19 12:18:11;;;;;;;7.75;4.43;;;20.80;41.00;;;;;;4925896;29;20058;-92
2021/04/19 12:20:38;;;;;;;6.97;4.15;;;20.80;41.10;;;;;;4926929;29;20043;-94
2021/04/19 12:23:05;;;;;;;7.15;4.00;;;21.00;41.10;;;;;;4926847;29;20413;-92
2021/04/19 12:25:31;;;;;;;8.52;4.10;;;21.20;40.90;;;;;;4925710;29;20091;-93
2021/04/19 12:27:59;;;;;;;8.48;4.43;;;21.40;41.00;;;;;;4943741;29;20485;-92
2021/04/19 12:30:26;;;;;;;5.97;3.65;;;21.60;41.00;;;;;;4937676;29;20028;-92
2021/04/19 12:32:52;;;;;;;15.02;5.28;;;21.80;40.80;;;;;;4902223;29;20032;-93
2021/04/19 12:35:19;;;;;;;8.32;4.85;;;21.90;40.90;;;;;;4903847;29;20033;-92
2021/04/19 12:37:45;;;;;;;7.28;4.60;;;21.70;40.40;;;;;;4906198;29;20035;-92
2021/04/19 12:40:11;;;;;;;7.38;3.80;;;21.60;40.40;;;;;;4905759;29;20020;-92
2021/04/19 12:42:37;;;;;;;7.30;3.92;;;21.70;40.30;;;;;;4911451;29;20032;-91
2021/04/19 12:45:03;;;;;;;7.78;4.18;;;21.90;40.00;;;;;;4908668;29;20024;-92
2021/04/19 12:47:29;;;;;;;6.47;3.70;;;22.00;39.60;;;;;;4903235;29;20463;-91
2021/04/19 12:49:58;;;;;;;10.13;5.30;;;22.20;39.40;;;;;;4911226;29;20158;-94
2021/04/19 12:52:23;;;;;;;11.60;5.72;;;22.30;39.40;;;;;;4934671;29;20031;-90
2021/04/19 12:54:49;;;;;;;9.30;5.50;;;22.20;40.00;;;;;;4922926;29;20024;-91
2021/04/19 12:57:15;;;;;;;14.98;6.35;;;22.10;40.80;;;;;;4918714;29;20035;-92
2021/04/19 12:59:40;;;;;;;9.88;6.03;;;22.00;41.20;;;;;;4902941;29;20099;-92
2021/04/19 13:02:07;;;;;;;14.10;6.60;;;21.90;41.90;;;;;;4904476;29;20032;-92
2021/04/19 13:04:33;;;;;;;11.25;6.28;;;21.90;42.10;;;;;;4908924;29;20047;-92